sensor_id;sensor_type;location;lat;lon;timestamp;P1;durP1;ratioP1;P2;durP2;ratioP2
4835;SDS011;66719;51.226;6.902;2024-03-23T00:56:03;17.13;;;3.77;;
4835;SDS011;66719;51.226;6.902;2024-03-23T00:58:30;19.47;;;3.57;;
4835;SDS011;66719;51.226;6.902;2024-03-23T01:00:55;17.47;;;3.57;;
4835;SDS011;66719;51.226;6.902;2024-03-23T01:03:21;21.20;;;3.97;;
4835;SDS011;66719;51.226;6.902;2024-03-23T01:05:47;16.50;;;4.33;;
4835;SDS011;66719;51.226;6.902;2024-03-23T01:08:14;21.40;;;3.60;;
4835;SDS011;66719;51.226;6.902;2024-03-23T01:10:40;21.70;;;4.10;;
4835;SDS011;66719;51.226;6.902;2024-03-23T01:13:05;19.10;;;4.07;;
4835;SDS011;66719;51.226;6.902;2024-03-23T01:15:31;23.93;;;4.33;;
4835;SDS011;66719;51.226;6.902;2024-03-23T01:17:57;16.73;;;3.40;;
4835;SDS011;66719;51.226;6.902;2024-03-23T01:20:23;16.37;;;4.23;;
4835;SDS011;66719;51.226;6.902;2024-03-23T01:22:48;18.80;;;4.03;;
4835;SDS011;66719;51.226;6.902;2024-03-23T01:25:14;17.70;;;3.47;;
4835;SDS011;66719;51.226;6.902;2024-03-23T01:27:40;22.30;;;3.47;;
4835;SDS011;66719;51.226;6.902;2024-03-23T01:30:05;20.67;;;3.80;;
4835;SDS011;66719;51.226;6.902;2024-03-23T01:32:32;18.10;;;4.30;;
4835;SDS011;66719;51.226;6.902;2024-03-23T01:34:58;16.50;;;4.03;;
4835;SDS011;66719;51.226;6.902;2024-03-23T01:37:24;18.70;;;3.60;;
4835;SDS011;66719;51.226;6.902;2024-03-23T01:39:49;21.20;;;3.60;;
4835;SDS011;66719;51.226;6.902;2024-03-23T01:42:15;27.07;;;3.60;;
4835;SDS011;66719;51.226;6.902;2024-03-23T01:44:40;17.30;;;4.20;;
4835;SDS011;66719;51.226;6.902;2024-03-23T01:47:09;24.00;;;4.17;;
4835;SDS011;66719;51.226;6.902;2024-03-23T01:49:35;18.00;;;4.10;;
4835;SDS011;66719;51.226;6.902;2024-03-23T01:52:01;17.97;;;4.33;;
4835;SDS011;66719;51.226;6.902;2024-03-23T01:54:27;16.37;;;3.27;;
4835;SDS011;66719;51.226;6.902;2024-03-23T01:56:54;19.50;;;4.30;;
4835;SDS011;66719;51.226;6.902;2024-03-23T01:59:21;14.37;;;3.40;;
4835;SDS011;66719;51.226;6.902;2024-03-23T02:01:46;22.60;;;3.93;;
4835;SDS011;66719;51.226;6.902;2024-03-23T02:04:12;20.70;;;4.00;;
4835;SDS011;66719;51.226;6.902;2024-03-23T02:06:38;19.53;;;3.80;;
4835;SDS011;66719;51.226;6.902;2024-03-23T02:09:03;15.30;;;3.77;;
4835;SDS011;66719;51.226;6.902;2024-03-23T02:11:30;13.77;;;3.00;;
4835;SDS011;66719;51.226;6.902;2024-03-23T02:13:56;19.30;;;3.67;;
4835;SDS011;66719;51.226;6.902;2024-03-23T02:16:21;19.93;;;4.10;;
4835;SDS011;66719;51.226;6.902;2024-03-23T02:18:47;18.60;;;3.10;;
4835;SDS011;66719;51.226;6.902;2024-03-23T02:21:13;15.80;;;3.90;;
4835;SDS011;66719;51.226;6.902;2024-03-23T02:23:38;13.63;;;3.10;;
4835;SDS011;66719;51.226;6.902;2024-03-23T02:26:04;15.23;;;3.30;;
4835;SDS011;66719;51.226;6.902;2024-03-23T02:28:29;18.83;;;3.33;;
4835;SDS011;66719;51.226;6.902;2024-03-23T02:30:55;16.20;;;3.80;;
4835;SDS011;66719;51.226;6.902;2024-03-23T02:33:21;12.23;;;3.40;;
4835;SDS011;66719;51.226;6.902;2024-03-23T02:35:46;20.10;;;4.03;;
4835;SDS011;66719;51.226;6.902;2024-03-23T02:38:12;18.50;;;3.90;;
4835;SDS011;66719;51.226;6.902;2024-03-23T02:40:38;12.30;;;2.90;;
4835;SDS011;66719;51.226;6.902;2024-03-23T02:43:04;14.30;;;3.30;;
4835;SDS011;66719;51.226;6.902;2024-03-23T02:45:30;17.53;;;3.63;;
4835;SDS011;66719;51.226;6.902;2024-03-23T02:47:56;15.00;;;3.17;;
4835;SDS011;66719;51.226;6.902;2024-03-23T02:50:22;14.83;;;3.70;;
4835;SDS011;66719;51.226;6.902;2024-03-23T02:52:48;13.40;;;2.57;;
4835;SDS011;66719;51.226;6.902;2024-03-23T02:55:14;14.27;;;3.17;;
4835;SDS011;66719;51.226;6.902;2024-03-23T02:57:39;16.17;;;3.70;;
4835;SDS011;66719;51.226;6.902;2024-03-23T03:00:06;14.87;;;3.27;;
4835;SDS011;66719;51.226;6.902;2024-03-23T03:02:32;14.60;;;2.90;;
4835;SDS011;66719;51.226;6.902;2024-03-23T03:04:58;16.00;;;3.00;;
4835;SDS011;66719;51.226;6.902;2024-03-23T03:07:24;10.60;;;2.40;;
4835;SDS011;66719;51.226;6.902;2024-03-23T03:09:50;14.67;;;2.60;;
4835;SDS011;66719;51.226;6.902;2024-03-23T03:12:15;13.80;;;2.90;;
4835;SDS011;66719;51.226;6.902;2024-03-23T03:14:41;15.73;;;3.70;;
4835;SDS011;66719;51.226;6.902;2024-03-23T03:17:06;16.57;;;3.10;;
4835;SDS011;66719;51.226;6.902;2024-03-23T03:19:32;11.60;;;2.90;;
4835;SDS011;66719;51.226;6.902;2024-03-23T03:21:58;13.90;;;2.40;;
4835;SDS011;66719;51.226;6.902;2024-03-23T03:24:23;11.97;;;3.00;;
4835;SDS011;66719;51.226;6.902;2024-03-23T03:26:49;20.60;;;3.30;;
4835;SDS011;66719;51.226;6.902;2024-03-23T03:29:15;16.83;;;3.20;;
4835;SDS011;66719;51.226;6.902;2024-03-23T03:31:41;17.57;;;3.20;;
4835;SDS011;66719;51.226;6.902;2024-03-23T03:34:08;15.63;;;2.80;;
4835;SDS011;66719;51.226;6.902;2024-03-23T03:36:34;14.47;;;2.77;;
4835;SDS011;66719;51.226;6.902;2024-03-23T03:38:59;12.57;;;2.90;;
4835;SDS011;66719;51.226;6.902;2024-03-23T03:41:25;13.33;;;2.90;;
4835;SDS011;66719;51.226;6.902;2024-03-23T03:43:51;16.20;;;4.40;;
4835;SDS011;66719;51.226;6.902;2024-03-23T03:46:16;18.50;;;3.27;;
4835;SDS011;66719;51.226;6.902;2024-03-23T03:48:42;15.90;;;3.17;;
4835;SDS011;66719;51.226;6.902;2024-03-23T03:51:10;16.13;;;3.10;;
4835;SDS011;66719;51.226;6.902;2024-03-23T03:53:36;15.30;;;3.67;;
4835;SDS011;66719;51.226;6.902;2024-03-23T03:56:01;18.53;;;3.53;;
4835;SDS011;66719;51.226;6.902;2024-03-23T03:58:27;16.10;;;3.80;;
4835;SDS011;66719;51.226;6.902;2024-03-23T04:00:53;17.23;;;3.30;;
4835;SDS011;66719;51.226;6.902;2024-03-23T04:03:19;21.57;;;4.57;;
4835;SDS011;66719;51.226;6.902;2024-03-23T04:05:54;15.70;;;3.27;;
4835;SDS011;66719;51.226;6.902;2024-03-23T04:08:20;14.83;;;3.47;;
4835;SDS011;66719;51.226;6.902;2024-03-23T04:10:46;19.07;;;3.47;;
4835;SDS011;66719;51.226;6.902;2024-03-23T04:13:12;18.33;;;3.83;;
4835;SDS011;66719;51.226;6.902;2024-03-23T04:15:38;15.47;;;2.83;;
4835;SDS011;66719;51.226;6.902;2024-03-23T04:18:05;13.10;;;3.50;;
4835;SDS011;66719;51.226;6.902;2024-03-23T04:20:30;15.87;;;3.57;;
4835;SDS011;66719;51.226;6.902;2024-03-23T04:22:57;19.60;;;2.93;;
4835;SDS011;66719;51.226;6.902;2024-03-23T04:25:23;15.17;;;3.50;;
4835;SDS011;66719;51.226;6.902;2024-03-23T04:27:49;15.93;;;3.87;;
4835;SDS011;66719;51.226;6.902;2024-03-23T04:30:15;15.87;;;3.70;;
4835;SDS011;66719;51.226;6.902;2024-03-23T04:32:41;16.00;;;3.20;;
4835;SDS011;66719;51.226;6.902;2024-03-23T04:35:07;14.43;;;3.50;;
4835;SDS011;66719;51.226;6.902;2024-03-23T04:37:36;17.00;;;3.30;;
4835;SDS011;66719;51.226;6.902;2024-03-23T04:40:02;15.97;;;3.53;;
4835;SDS011;66719;51.226;6.902;2024-03-23T04:42:29;16.23;;;3.60;;
4835;SDS011;66719;51.226;6.902;2024-03-23T04:44:55;17.97;;;3.30;;
4835;SDS011;66719;51.226;6.902;2024-03-23T04:47:20;15.87;;;3.00;;
4835;SDS011;66719;51.226;6.902;2024-03-23T04:49:46;23.40;;;3.80;;
4835;SDS011;66719;51.226;6.902;2024-03-23T04:52:12;19.40;;;3.70;;
4835;SDS011;66719;51.226;6.902;2024-03-23T04:54:37;14.03;;;3.50;;
4835;SDS011;66719;51.226;6.902;2024-03-23T04:57:05;17.33;;;3.63;;
4835;SDS011;66719;51.226;6.902;2024-03-23T04:59:31;14.10;;;3.73;;
4835;SDS011;66719;51.226;6.902;2024-03-23T05:01:57;13.97;;;2.80;;
4835;SDS011;66719;51.226;6.902;2024-03-23T05:04:23;14.13;;;4.03;;
4835;SDS011;66719;51.226;6.902;2024-03-23T05:06:48;18.97;;;3.53;;
4835;SDS011;66719;51.226;6.902;2024-03-23T05:09:14;18.33;;;2.97;;
4835;SDS011;66719;51.226;6.902;2024-03-23T05:11:40;16.00;;;3.20;;
4835;SDS011;66719;51.226;6.902;2024-03-23T05:14:07;29.33;;;3.60;;
4835;SDS011;66719;51.226;6.902;2024-03-23T05:16:32;19.50;;;3.80;;
4835;SDS011;66719;51.226;6.902;2024-03-23T05:18:59;17.37;;;3.80;;
4835;SDS011;66719;51.226;6.902;2024-03-23T05:21:25;19.10;;;3.40;;
4835;SDS011;66719;51.226;6.902;2024-03-23T05:23:50;21.97;;;3.57;;
4835;SDS011;66719;51.226;6.902;2024-03-23T05:26:16;23.30;;;3.70;;
4835;SDS011;66719;51.226;6.902;2024-03-23T05:28:42;17.77;;;3.60;;
4835;SDS011;66719;51.226;6.902;2024-03-23T05:31:09;22.73;;;4.43;;
4835;SDS011;66719;51.226;6.902;2024-03-23T05:33:38;19.97;;;3.80;;
4835;SDS011;66719;51.226;6.902;2024-03-23T05:36:03;18.13;;;3.60;;
4835;SDS011;66719;51.226;6.902;2024-03-23T05:38:30;15.73;;;4.20;;
4835;SDS011;66719;51.226;6.902;2024-03-23T05:40:59;20.03;;;3.80;;
4835;SDS011;66719;51.226;6.902;2024-03-23T05:43:25;19.20;;;4.00;;
4835;SDS011;66719;51.226;6.902;2024-03-23T05:45:59;24.17;;;4.07;;
4835;SDS011;66719;51.226;6.902;2024-03-23T05:48:25;23.23;;;4.43;;
4835;SDS011;66719;51.226;6.902;2024-03-23T05:50:52;14.87;;;3.77;;
4835;SDS011;66719;51.226;6.902;2024-03-23T05:53:18;17.37;;;3.70;;
4835;SDS011;66719;51.226;6.902;2024-03-23T05:55:46;19.00;;;4.57;;
4835;SDS011;66719;51.226;6.902;2024-03-23T05:58:14;17.50;;;3.93;;
4835;SDS011;66719;51.226;6.902;2024-03-23T06:00:40;17.63;;;3.87;;
4835;SDS011;66719;51.226;6.902;2024-03-23T06:03:07;13.97;;;3.40;;
4835;SDS011;66719;51.226;6.902;2024-03-23T06:05:32;19.10;;;3.87;;
4835;SDS011;66719;51.226;6.902;2024-03-23T06:07:58;16.40;;;3.57;;
4835;SDS011;66719;51.226;6.902;2024-03-23T06:10:23;20.17;;;4.20;;
4835;SDS011;66719;51.226;6.902;2024-03-23T06:12:49;19.73;;;3.97;;
4835;SDS011;66719;51.226;6.902;2024-03-23T06:15:17;21.13;;;5.07;;
4835;SDS011;66719;51.226;6.902;2024-03-23T06:17:44;14.37;;;4.60;;
4835;SDS011;66719;51.226;6.902;2024-03-23T06:20:09;16.97;;;4.67;;
4835;SDS011;66719;51.226;6.902;2024-03-23T06:22:35;21.57;;;4.50;;
4835;SDS011;66719;51.226;6.902;2024-03-23T06:25:01;20.80;;;4.07;;
4835;SDS011;66719;51.226;6.902;2024-03-23T06:27:27;15.60;;;4.63;;
4835;SDS011;66719;51.226;6.902;2024-03-23T06:29:53;22.13;;;5.50;;
4835;SDS011;66719;51.226;6.902;2024-03-23T06:32:20;25.70;;;6.07;;
4835;SDS011;66719;51.226;6.902;2024-03-23T06:34:46;18.60;;;5.93;;
4835;SDS011;66719;51.226;6.902;2024-03-23T06:37:11;20.50;;;4.80;;
4835;SDS011;66719;51.226;6.902;2024-03-23T06:39:37;23.40;;;5.27;;
4835;SDS011;66719;51.226;6.902;2024-03-23T06:42:04;35.80;;;5.50;;
4835;SDS011;66719;51.226;6.902;2024-03-23T06:44:30;16.20;;;4.60;;
4835;SDS011;66719;51.226;6.902;2024-03-23T06:46:56;19.53;;;5.53;;
4835;SDS011;66719;51.226;6.902;2024-03-23T06:49:22;18.47;;;5.10;;
4835;SDS011;66719;51.226;6.902;2024-03-23T06:51:48;19.87;;;5.60;;
4835;SDS011;66719;51.226;6.902;2024-03-23T06:54:13;20.97;;;5.70;;
4835;SDS011;66719;51.226;6.902;2024-03-23T06:56:40;17.27;;;5.07;;
4835;SDS011;66719;51.226;6.902;2024-03-23T06:59:06;23.50;;;6.50;;
4835;SDS011;66719;51.226;6.902;2024-03-23T07:01:32;18.67;;;5.93;;
4835;SDS011;66719;51.226;6.902;2024-03-23T07:03:57;19.43;;;5.40;;
4835;SDS011;66719;51.226;6.902;2024-03-23T07:06:23;19.37;;;5.70;;
4835;SDS011;66719;51.226;6.902;2024-03-23T07:08:49;23.77;;;5.87;;
4835;SDS011;66719;51.226;6.902;2024-03-23T07:11:21;23.93;;;6.57;;
4835;SDS011;66719;51.226;6.902;2024-03-23T07:13:51;20.70;;;6.03;;
4835;SDS011;66719;51.226;6.902;2024-03-23T07:16:17;22.63;;;6.60;;
4835;SDS011;66719;51.226;6.902;2024-03-23T07:18:43;23.93;;;6.80;;
4835;SDS011;66719;51.226;6.902;2024-03-23T07:21:09;19.03;;;6.43;;
4835;SDS011;66719;51.226;6.902;2024-03-23T07:23:35;26.63;;;6.60;;
4835;SDS011;66719;51.226;6.902;2024-03-23T07:26:01;19.53;;;6.33;;
4835;SDS011;66719;51.226;6.902;2024-03-23T07:28:28;26.80;;;6.60;;
4835;SDS011;66719;51.226;6.902;2024-03-23T07:33:36;28.83;;;6.60;;
4835;SDS011;66719;51.226;6.902;2024-03-23T07:36:03;25.40;;;6.80;;
4835;SDS011;66719;51.226;6.902;2024-03-23T07:38:30;21.53;;;6.60;;
4835;SDS011;66719;51.226;6.902;2024-03-23T07:41:03;21.27;;;6.87;;
4835;SDS011;66719;51.226;6.902;2024-03-23T07:43:36;22.87;;;5.73;;
4835;SDS011;66719;51.226;6.902;2024-03-23T07:46:03;19.00;;;5.63;;
4835;SDS011;66719;51.226;6.902;2024-03-23T07:48:29;20.63;;;6.27;;
4835;SDS011;66719;51.226;6.902;2024-03-23T07:51:08;24.03;;;6.60;;
4835;SDS011;66719;51.226;6.902;2024-03-23T07:53:35;20.10;;;5.20;;
4835;SDS011;66719;51.226;6.902;2024-03-23T07:56:03;23.17;;;5.70;;
4835;SDS011;66719;51.226;6.902;2024-03-23T07:58:29;21.07;;;6.10;;
4835;SDS011;66719;51.226;6.902;2024-03-23T08:00:55;23.83;;;5.53;;
4835;SDS011;66719;51.226;6.902;2024-03-23T08:03:21;25.83;;;6.43;;
4835;SDS011;66719;51.226;6.902;2024-03-23T08:05:48;20.93;;;6.10;;
4835;SDS011;66719;51.226;6.902;2024-03-23T08:08:14;19.87;;;5.40;;
4835;SDS011;66719;51.226;6.902;2024-03-23T08:10:47;23.67;;;5.60;;
4835;SDS011;66719;51.226;6.902;2024-03-23T08:13:16;28.53;;;6.40;;
4835;SDS011;66719;51.226;6.902;2024-03-23T08:15:42;20.23;;;5.20;;
4835;SDS011;66719;51.226;6.902;2024-03-23T08:18:09;20.07;;;5.70;;
4835;SDS011;66719;51.226;6.902;2024-03-23T08:20:37;24.37;;;6.27;;
4835;SDS011;66719;51.226;6.902;2024-03-23T08:23:04;19.97;;;6.03;;
4835;SDS011;66719;51.226;6.902;2024-03-23T08:25:31;21.63;;;6.07;;
4835;SDS011;66719;51.226;6.902;2024-03-23T08:27:57;23.83;;;6.80;;
4835;SDS011;66719;51.226;6.902;2024-03-23T08:30:23;21.67;;;5.50;;
4835;SDS011;66719;51.226;6.902;2024-03-23T08:32:49;23.23;;;5.27;;
4835;SDS011;66719;51.226;6.902;2024-03-23T08:35:15;22.30;;;5.73;;
4835;SDS011;66719;51.226;6.902;2024-03-23T08:37:40;20.87;;;6.67;;
4835;SDS011;66719;51.226;6.902;2024-03-23T08:40:06;24.37;;;6.33;;
4835;SDS011;66719;51.226;6.902;2024-03-23T08:42:33;21.57;;;5.80;;
4835;SDS011;66719;51.226;6.902;2024-03-23T08:44:59;20.90;;;4.67;;
4835;SDS011;66719;51.226;6.902;2024-03-23T08:47:25;22.63;;;5.10;;
4835;SDS011;66719;51.226;6.902;2024-03-23T08:49:51;19.30;;;6.07;;
4835;SDS011;66719;51.226;6.902;2024-03-23T08:52:17;23.93;;;4.53;;
4835;SDS011;66719;51.226;6.902;2024-03-23T08:54:42;18.53;;;4.33;;
4835;SDS011;66719;51.226;6.902;2024-03-23T08:57:08;19.07;;;3.37;;
4835;SDS011;66719;51.226;6.902;2024-03-23T08:59:34;21.90;;;4.00;;
4835;SDS011;66719;51.226;6.902;2024-03-23T09:02:00;20.07;;;4.10;;
4835;SDS011;66719;51.226;6.902;2024-03-23T09:04:26;17.07;;;3.50;;
4835;SDS011;66719;51.226;6.902;2024-03-23T09:06:51;17.50;;;3.60;;
4835;SDS011;66719;51.226;6.902;2024-03-23T09:09:17;21.50;;;4.23;;
4835;SDS011;66719;51.226;6.902;2024-03-23T09:11:43;20.23;;;3.83;;
4835;SDS011;66719;51.226;6.902;2024-03-23T09:14:08;16.50;;;3.00;;
4835;SDS011;66719;51.226;6.902;2024-03-23T09:16:34;22.43;;;3.33;;
4835;SDS011;66719;51.226;6.902;2024-03-23T09:19:00;22.37;;;4.50;;
4835;SDS011;66719;51.226;6.902;2024-03-23T09:21:26;14.00;;;3.10;;
4835;SDS011;66719;51.226;6.902;2024-03-23T09:23:52;18.53;;;3.50;;
4835;SDS011;66719;51.226;6.902;2024-03-23T09:26:17;20.47;;;3.57;;
4835;SDS011;66719;51.226;6.902;2024-03-23T09:28:43;17.63;;;3.63;;
4835;SDS011;66719;51.226;6.902;2024-03-23T09:31:09;19.20;;;3.10;;
4835;SDS011;66719;51.226;6.902;2024-03-23T09:33:40;18.57;;;3.00;;
4835;SDS011;66719;51.226;6.902;2024-03-23T09:36:06;16.10;;;2.93;;
4835;SDS011;66719;51.226;6.902;2024-03-23T09:38:33;17.73;;;3.63;;
4835;SDS011;66719;51.226;6.902;2024-03-23T09:40:59;13.70;;;3.37;;
4835;SDS011;66719;51.226;6.902;2024-03-23T09:43:25;23.03;;;4.83;;
4835;SDS011;66719;51.226;6.902;2024-03-23T09:45:51;16.00;;;4.20;;
4835;SDS011;66719;51.226;6.902;2024-03-23T09:48:18;16.80;;;3.70;;
4835;SDS011;66719;51.226;6.902;2024-03-23T09:50:45;27.57;;;4.60;;
4835;SDS011;66719;51.226;6.902;2024-03-23T09:53:12;20.33;;;4.07;;
4835;SDS011;66719;51.226;6.902;2024-03-23T09:55:40;19.57;;;4.20;;
4835;SDS011;66719;51.226;6.902;2024-03-23T09:58:07;10.77;;;3.20;;
4835;SDS011;66719;51.226;6.902;2024-03-23T10:00:33;16.87;;;3.70;;
4835;SDS011;66719;51.226;6.902;2024-03-23T10:03:03;13.07;;;3.90;;
4835;SDS011;66719;51.226;6.902;2024-03-23T10:05:31;19.10;;;4.17;;
4835;SDS011;66719;51.226;6.902;2024-03-23T10:08:00;15.23;;;4.17;;
4835;SDS011;66719;51.226;6.902;2024-03-23T10:10:25;17.40;;;3.60;;
4835;SDS011;66719;51.226;6.902;2024-03-23T10:12:51;15.37;;;4.00;;
4835;SDS011;66719;51.226;6.902;2024-03-23T10:15:18;14.20;;;4.30;;
4835;SDS011;66719;51.226;6.902;2024-03-23T10:17:46;15.47;;;3.70;;
4835;SDS011;66719;51.226;6.902;2024-03-23T10:20:12;18.50;;;4.00;;
4835;SDS011;66719;51.226;6.902;2024-03-23T10:22:38;17.17;;;3.50;;
4835;SDS011;66719;51.226;6.902;2024-03-23T10:25:08;12.97;;;3.70;;
4835;SDS011;66719;51.226;6.902;2024-03-23T10:27:34;12.43;;;3.07;;
4835;SDS011;66719;51.226;6.902;2024-03-23T10:30:08;16.13;;;3.13;;
4835;SDS011;66719;51.226;6.902;2024-03-23T10:32:38;18.67;;;3.33;;
4835;SDS011;66719;51.226;6.902;2024-03-23T10:35:13;10.67;;;2.50;;
4835;SDS011;66719;51.226;6.902;2024-03-23T10:37:40;21.10;;;3.00;;
4835;SDS011;66719;51.226;6.902;2024-03-23T10:40:08;11.37;;;2.03;;
4835;SDS011;66719;51.226;6.902;2024-03-23T10:42:36;10.70;;;2.50;;
4835;SDS011;66719;51.226;6.902;2024-03-23T10:45:03;13.27;;;2.07;;
4835;SDS011;66719;51.226;6.902;2024-03-23T10:47:30;8.77;;;1.90;;
4835;SDS011;66719;51.226;6.902;2024-03-23T10:49:57;11.50;;;2.00;;
4835;SDS011;66719;51.226;6.902;2024-03-23T10:52:23;8.90;;;1.60;;
4835;SDS011;66719;51.226;6.902;2024-03-23T10:54:53;9.77;;;1.70;;
4835;SDS011;66719;51.226;6.902;2024-03-23T10:57:21;9.50;;;2.07;;
4835;SDS011;66719;51.226;6.902;2024-03-23T10:59:52;14.43;;;2.50;;
4835;SDS011;66719;51.226;6.902;2024-03-23T11:02:19;10.47;;;2.10;;
4835;SDS011;66719;51.226;6.902;2024-03-23T11:04:45;11.00;;;2.47;;
4835;SDS011;66719;51.226;6.902;2024-03-23T11:09:55;8.63;;;1.83;;
4835;SDS011;66719;51.226;6.902;2024-03-23T11:14:51;7.30;;;1.70;;
4835;SDS011;66719;51.226;6.902;2024-03-23T11:17:23;8.40;;;1.70;;
4835;SDS011;66719;51.226;6.902;2024-03-23T11:25:19;9.50;;;1.80;;
4835;SDS011;66719;51.226;6.902;2024-03-23T11:27:46;10.60;;;1.90;;
4835;SDS011;66719;51.226;6.902;2024-03-23T11:32:57;11.23;;;2.00;;
4835;SDS011;66719;51.226;6.902;2024-03-23T11:40:28;8.53;;;1.80;;
4835;SDS011;66719;51.226;6.902;2024-03-23T11:43:04;9.57;;;1.97;;
4835;SDS011;66719;51.226;6.902;2024-03-23T11:45:49;8.27;;;1.93;;
4835;SDS011;66719;51.226;6.902;2024-03-23T11:48:21;11.23;;;1.87;;
4835;SDS011;66719;51.226;6.902;2024-03-23T11:50:48;11.93;;;2.07;;
4835;SDS011;66719;51.226;6.902;2024-03-23T11:53:19;8.70;;;2.00;;
4835;SDS011;66719;51.226;6.902;2024-03-23T11:58:13;15.23;;;2.53;;
4835;SDS011;66719;51.226;6.902;2024-03-23T12:00:39;11.90;;;2.67;;
4835;SDS011;66719;51.226;6.902;2024-03-23T12:03:05;8.57;;;2.00;;
4835;SDS011;66719;51.226;6.902;2024-03-23T12:05:31;7.20;;;1.20;;
4835;SDS011;66719;51.226;6.902;2024-03-23T12:08:16;9.43;;;1.23;;
4835;SDS011;66719;51.226;6.902;2024-03-23T12:10:47;6.97;;;1.20;;
4835;SDS011;66719;51.226;6.902;2024-03-23T12:13:15;7.47;;;1.40;;
4835;SDS011;66719;51.226;6.902;2024-03-23T12:15:50;6.43;;;1.13;;
4835;SDS011;66719;51.226;6.902;2024-03-23T12:18:17;7.63;;;1.40;;
4835;SDS011;66719;51.226;6.902;2024-03-23T12:20:43;7.07;;;1.30;;
4835;SDS011;66719;51.226;6.902;2024-03-23T12:23:12;7.50;;;1.30;;
4835;SDS011;66719;51.226;6.902;2024-03-23T12:25:38;6.87;;;1.30;;
4835;SDS011;66719;51.226;6.902;2024-03-23T12:28:05;10.03;;;1.33;;
4835;SDS011;66719;51.226;6.902;2024-03-23T12:30:35;9.50;;;1.40;;
4835;SDS011;66719;51.226;6.902;2024-03-23T12:33:04;8.80;;;1.50;;
4835;SDS011;66719;51.226;6.902;2024-03-23T12:35:29;8.90;;;1.53;;
4835;SDS011;66719;51.226;6.902;2024-03-23T12:37:55;8.63;;;2.00;;
4835;SDS011;66719;51.226;6.902;2024-03-23T12:40:21;7.93;;;1.70;;
4835;SDS011;66719;51.226;6.902;2024-03-23T12:42:47;8.07;;;2.00;;
4835;SDS011;66719;51.226;6.902;2024-03-23T12:45:13;9.97;;;2.33;;
4835;SDS011;66719;51.226;6.902;2024-03-23T12:47:38;10.13;;;2.20;;
4835;SDS011;66719;51.226;6.902;2024-03-23T12:50:04;10.13;;;1.77;;
4835;SDS011;66719;51.226;6.902;2024-03-23T12:52:31;8.23;;;1.63;;
4835;SDS011;66719;51.226;6.902;2024-03-23T12:54:57;8.93;;;2.13;;
4835;SDS011;66719;51.226;6.902;2024-03-23T12:57:23;8.00;;;1.70;;
4835;SDS011;66719;51.226;6.902;2024-03-23T12:59:50;10.37;;;1.57;;
4835;SDS011;66719;51.226;6.902;2024-03-23T13:02:24;7.90;;;1.40;;
4835;SDS011;66719;51.226;6.902;2024-03-23T13:04:50;6.80;;;1.43;;
4835;SDS011;66719;51.226;6.902;2024-03-23T13:07:17;10.67;;;1.90;;
4835;SDS011;66719;51.226;6.902;2024-03-23T13:09:43;10.00;;;1.80;;
4835;SDS011;66719;51.226;6.902;2024-03-23T13:12:10;10.37;;;1.73;;
4835;SDS011;66719;51.226;6.902;2024-03-23T13:14:37;10.40;;;2.63;;
4835;SDS011;66719;51.226;6.902;2024-03-23T13:17:04;7.73;;;1.70;;
4835;SDS011;66719;51.226;6.902;2024-03-23T13:19:30;8.37;;;1.60;;
4835;SDS011;66719;51.226;6.902;2024-03-23T13:21:59;12.27;;;1.77;;
4835;SDS011;66719;51.226;6.902;2024-03-23T13:24:29;9.03;;;1.47;;
4835;SDS011;66719;51.226;6.902;2024-03-23T13:26:55;8.60;;;1.70;;
4835;SDS011;66719;51.226;6.902;2024-03-23T13:29:22;7.60;;;1.43;;
4835;SDS011;66719;51.226;6.902;2024-03-23T13:31:49;6.50;;;1.20;;
4835;SDS011;66719;51.226;6.902;2024-03-23T13:34:16;10.47;;;1.70;;
4835;SDS011;66719;51.226;6.902;2024-03-23T13:36:42;10.83;;;2.00;;
4835;SDS011;66719;51.226;6.902;2024-03-23T13:39:09;11.00;;;1.30;;
4835;SDS011;66719;51.226;6.902;2024-03-23T13:41:41;12.50;;;1.60;;
4835;SDS011;66719;51.226;6.902;2024-03-23T13:44:11;9.37;;;1.60;;
4835;SDS011;66719;51.226;6.902;2024-03-23T13:46:39;14.80;;;2.00;;
4835;SDS011;66719;51.226;6.902;2024-03-23T13:49:05;11.83;;;1.63;;
4835;SDS011;66719;51.226;6.902;2024-03-23T13:51:32;11.53;;;1.90;;
4835;SDS011;66719;51.226;6.902;2024-03-23T13:53:58;9.87;;;1.90;;
4835;SDS011;66719;51.226;6.902;2024-03-23T13:56:30;13.63;;;1.90;;
4835;SDS011;66719;51.226;6.902;2024-03-23T13:58:55;8.97;;;1.73;;
4835;SDS011;66719;51.226;6.902;2024-03-23T14:01:21;9.00;;;1.80;;
4835;SDS011;66719;51.226;6.902;2024-03-23T14:03:48;8.20;;;1.63;;
4835;SDS011;66719;51.226;6.902;2024-03-23T14:06:13;11.50;;;1.90;;
4835;SDS011;66719;51.226;6.902;2024-03-23T14:08:39;11.67;;;2.20;;
4835;SDS011;66719;51.226;6.902;2024-03-23T14:11:05;9.40;;;1.70;;
4835;SDS011;66719;51.226;6.902;2024-03-23T14:13:31;10.47;;;2.00;;
4835;SDS011;66719;51.226;6.902;2024-03-23T14:15:58;9.80;;;2.00;;
4835;SDS011;66719;51.226;6.902;2024-03-23T14:18:24;10.13;;;1.60;;
4835;SDS011;66719;51.226;6.902;2024-03-23T14:20:51;9.60;;;2.13;;
4835;SDS011;66719;51.226;6.902;2024-03-23T14:23:18;10.93;;;2.17;;
4835;SDS011;66719;51.226;6.902;2024-03-23T14:25:44;12.80;;;1.97;;
4835;SDS011;66719;51.226;6.902;2024-03-23T14:28:10;9.87;;;2.27;;
4835;SDS011;66719;51.226;6.902;2024-03-23T14:30:42;7.80;;;1.73;;
4835;SDS011;66719;51.226;6.902;2024-03-23T14:33:08;11.80;;;2.03;;
4835;SDS011;66719;51.226;6.902;2024-03-23T14:35:34;10.07;;;1.67;;
4835;SDS011;66719;51.226;6.902;2024-03-23T14:38:01;11.23;;;2.17;;
4835;SDS011;66719;51.226;6.902;2024-03-23T14:40:27;9.37;;;1.50;;
4835;SDS011;66719;51.226;6.902;2024-03-23T14:42:56;7.33;;;1.87;;
4835;SDS011;66719;51.226;6.902;2024-03-23T14:45:22;9.10;;;1.80;;
4835;SDS011;66719;51.226;6.902;2024-03-23T14:47:50;6.70;;;1.37;;
4835;SDS011;66719;51.226;6.902;2024-03-23T14:50:16;8.40;;;2.10;;
4835;SDS011;66719;51.226;6.902;2024-03-23T14:52:43;8.33;;;1.53;;
4835;SDS011;66719;51.226;6.902;2024-03-23T14:55:10;7.77;;;1.47;;
4835;SDS011;66719;51.226;6.902;2024-03-23T14:57:39;9.03;;;1.47;;
4835;SDS011;66719;51.226;6.902;2024-03-23T15:00:06;9.97;;;1.97;;
4835;SDS011;66719;51.226;6.902;2024-03-23T15:02:33;12.07;;;1.90;;
4835;SDS011;66719;51.226;6.902;2024-03-23T15:05:00;8.00;;;1.57;;
4835;SDS011;66719;51.226;6.902;2024-03-23T15:07:26;7.17;;;1.43;;
4835;SDS011;66719;51.226;6.902;2024-03-23T15:09:52;8.47;;;1.40;;
4835;SDS011;66719;51.226;6.902;2024-03-23T15:12:19;11.33;;;1.70;;
4835;SDS011;66719;51.226;6.902;2024-03-23T15:14:44;12.23;;;2.00;;
4835;SDS011;66719;51.226;6.902;2024-03-23T15:17:11;10.07;;;1.70;;
4835;SDS011;66719;51.226;6.902;2024-03-23T15:19:37;7.67;;;1.60;;
4835;SDS011;66719;51.226;6.902;2024-03-23T15:22:02;10.60;;;2.50;;
4835;SDS011;66719;51.226;6.902;2024-03-23T15:24:28;7.70;;;1.53;;
4835;SDS011;66719;51.226;6.902;2024-03-23T15:26:54;10.43;;;1.70;;
4835;SDS011;66719;51.226;6.902;2024-03-23T15:29:23;8.80;;;1.67;;
4835;SDS011;66719;51.226;6.902;2024-03-23T15:31:48;9.90;;;1.70;;
4835;SDS011;66719;51.226;6.902;2024-03-23T15:34:18;8.30;;;1.50;;
4835;SDS011;66719;51.226;6.902;2024-03-23T15:36:47;9.90;;;1.77;;
4835;SDS011;66719;51.226;6.902;2024-03-23T15:39:14;8.80;;;1.77;;
4835;SDS011;66719;51.226;6.902;2024-03-23T15:41:40;8.00;;;1.50;;
4835;SDS011;66719;51.226;6.902;2024-03-23T15:44:06;9.10;;;1.77;;
4835;SDS011;66719;51.226;6.902;2024-03-23T15:46:33;8.10;;;2.03;;
4835;SDS011;66719;51.226;6.902;2024-03-23T15:48:58;9.23;;;2.00;;
4835;SDS011;66719;51.226;6.902;2024-03-23T15:51:24;10.47;;;1.93;;
4835;SDS011;66719;51.226;6.902;2024-03-23T15:53:56;9.60;;;1.80;;
4835;SDS011;66719;51.226;6.902;2024-03-23T15:56:22;9.13;;;1.70;;
4835;SDS011;66719;51.226;6.902;2024-03-23T15:58:48;9.43;;;1.87;;
4835;SDS011;66719;51.226;6.902;2024-03-23T16:01:13;9.53;;;2.00;;
4835;SDS011;66719;51.226;6.902;2024-03-23T16:03:39;9.60;;;1.70;;
4835;SDS011;66719;51.226;6.902;2024-03-23T16:06:05;9.03;;;1.60;;